createdAt,value
2019-02-16T00:00:19.865Z,96619.88
2019-02-16T00:05:18.979Z,96622.39
2019-02-16T00:07:48.055Z,96628.01
2019-02-16T00:10:17.133Z,96620.68
2019-02-16T00:12:46.229Z,96620.35
2019-02-16T00:15:16.228Z,96616.09
2019-02-16T00:17:45.735Z,96618.02
2019-02-16T00:20:14.830Z,96621.23
2019-02-16T00:22:43.892Z,96618.13
2019-02-16T00:25:14.646Z,96620.88
2019-02-16T00:27:43.783Z,96616.55
2019-02-16T00:30:23.191Z,96613.72
2019-02-16T00:32:52.281Z,96612.78
2019-02-16T00:35:21.362Z,96609.70
2019-02-16T00:37:51.102Z,96609.65
2019-02-16T00:40:20.213Z,96608.09
2019-02-16T00:42:49.268Z,96617.20
2019-02-16T00:45:18.331Z,96616.43
2019-02-16T00:47:47.412Z,96613.34
2019-02-16T00:50:18.249Z,96610.42
2019-02-16T00:52:47.367Z,96603.73
2019-02-16T00:55:16.425Z,96605.59
2019-02-16T00:57:46.176Z,96598.06
2019-02-16T01:00:20.181Z,96598.20
2019-02-16T01:02:49.244Z,96598.68
2019-02-16T01:05:18.300Z,96596.78
2019-02-16T01:07:47.357Z,96595.81
2019-02-16T01:13:00.405Z,96598.21
2019-02-16T01:15:29.618Z,96593.12
2019-02-16T01:17:58.669Z,96596.49
2019-02-16T01:20:28.766Z,96593.87
2019-02-16T01:22:59.246Z,96596.02
2019-02-16T01:25:28.324Z,96597.82
2019-02-16T01:27:57.411Z,96598.34
2019-02-16T01:30:27.501Z,96595.41
2019-02-16T01:32:59.355Z,96598.59
2019-02-16T01:35:28.461Z,96591.52
2019-02-16T01:37:57.507Z,96594.72
2019-02-16T01:40:27.578Z,96589.40
2019-02-16T01:42:57.654Z,96584.03
2019-02-16T01:45:26.751Z,96585.41
2019-02-16T01:47:55.813Z,96581.72
2019-02-16T01:50:25.819Z,96581.34
2019-02-16T01:52:54.870Z,96576.34
2019-02-16T01:55:24.433Z,96570.31
2019-02-16T01:57:57.537Z,96575.54
2019-02-16T02:00:26.584Z,96568.33
2019-02-16T02:02:59.272Z,96569.30
2019-02-16T02:05:28.331Z,96565.88
2019-02-16T02:07:59.402Z,96566.02
2019-02-16T02:10:28.448Z,96564.52
2019-02-16T02:15:34.037Z,96562.60
2019-02-16T02:20:41.026Z,96559.10
2019-02-16T02:23:18.082Z,96559.03
2019-02-16T02:25:47.148Z,96560.14
2019-02-16T02:28:18.724Z,96558.05
2019-02-16T02:30:47.813Z,96566.02
2019-02-16T02:33:16.867Z,96567.88
2019-02-16T02:35:45.949Z,96566.66
2019-02-16T02:40:59.056Z,96562.50
2019-02-16T02:43:31.980Z,96567.70
2019-02-16T02:46:15.878Z,96570.07
2019-02-16T02:48:44.926Z,96571.39
2019-02-16T02:53:57.206Z,96569.38
2019-02-16T02:59:01.982Z,96569.55
2019-02-16T03:01:38.146Z,96564.26
2019-02-16T03:04:07.353Z,96565.43
2019-02-16T03:06:36.876Z,96569.16
2019-02-16T03:09:05.942Z,96567.77
2019-02-16T03:14:09.651Z,96565.03
2019-02-16T03:16:38.749Z,96563.06
2019-02-16T03:19:07.792Z,96568.88
2019-02-16T03:21:36.847Z,96562.66
2019-02-16T03:24:05.891Z,96558.78
2019-02-16T03:26:40.210Z,96558.30
2019-02-16T03:29:16.449Z,96559.84
2019-02-16T03:34:49.177Z,96560.56
2019-02-16T03:37:42.731Z,96554.42
2019-02-16T03:40:14.364Z,96554.67
2019-02-16T03:42:43.498Z,96553.98
2019-02-16T03:45:15.684Z,96555.98
2019-02-16T03:47:45.001Z,96548.08
2019-02-16T03:50:14.058Z,96555.57
2019-02-16T03:52:44.399Z,96559.69
2019-02-16T03:57:53.416Z,96562.36
2019-02-16T04:00:22.507Z,96561.26
2019-02-16T04:02:51.569Z,96561.90
2019-02-16T04:05:23.243Z,96562.05
2019-02-16T04:07:52.322Z,96559.98
2019-02-16T04:10:21.368Z,96564.13
2019-02-16T04:12:51.078Z,96567.04
2019-02-16T04:15:20.175Z,96564.84
2019-02-16T04:17:49.243Z,96564.27
2019-02-16T04:20:18.321Z,96566.18
2019-02-16T04:22:47.414Z,96566.77
2019-02-16T04:25:17.467Z,96570.92
2019-02-16T04:27:46.585Z,96569.92
2019-02-16T04:30:15.638Z,96574.37
2019-02-16T04:32:44.696Z,96576.08
2019-02-16T04:35:15.743Z,96572.95
2019-02-16T04:37:45.484Z,96572.96
2019-02-16T04:40:14.574Z,96574.47
2019-02-16T04:42:43.622Z,96573.75
2019-02-16T04:45:14.361Z,96568.41
2019-02-16T04:47:43.431Z,96570.98
2019-02-16T04:50:13.584Z,96569.90
2019-02-16T04:52:42.613Z,96577.42
2019-02-16T04:57:47.370Z,96574.34
2019-02-16T05:00:16.460Z,96578.52
2019-02-16T05:02:45.525Z,96582.34
2019-02-16T05:05:17.719Z,96583.92
2019-02-16T05:07:46.772Z,96582.43
2019-02-16T05:10:16.266Z,96584.81
2019-02-16T05:12:46.203Z,96585.47
2019-02-16T05:15:15.258Z,96587.16
2019-02-16T05:17:44.883Z,96585.43
2019-02-16T05:20:13.951Z,96583.48
2019-02-16T05:22:44.945Z,96589.05
2019-02-16T05:25:12.070Z,96588.97
2019-02-16T05:27:41.125Z,96589.70
2019-02-16T05:32:47.069Z,96595.76
2019-02-16T05:35:22.256Z,96602.70
2019-02-16T05:37:51.289Z,96599.82
2019-02-16T05:40:21.272Z,96603.52
2019-02-16T05:42:51.143Z,96603.32
2019-02-16T05:45:20.212Z,96611.97
2019-02-16T05:47:49.302Z,96611.59
2019-02-16T05:52:55.085Z,96622.90
2019-02-16T05:55:27.957Z,96629.27
2019-02-16T05:58:09.506Z,96626.59
2019-02-16T06:00:48.925Z,96624.09
2019-02-16T06:03:33.230Z,96631.77
2019-02-16T06:06:09.127Z,96626.39
2019-02-16T06:08:38.195Z,96630.83
2019-02-16T06:11:08.118Z,96636.45
2019-02-16T06:13:38.087Z,96641.29
2019-02-16T06:16:07.644Z,96647.28
2019-02-16T06:18:36.729Z,96647.58
2019-02-16T06:21:06.733Z,96649.30
2019-02-16T06:23:35.794Z,96649.48
2019-02-16T06:26:04.865Z,96656.48
2019-02-16T06:28:35.608Z,96658.46
2019-02-16T06:31:04.362Z,96661.83
2019-02-16T06:33:34.360Z,96668.91
2019-02-16T06:36:05.937Z,96670.78
2019-02-16T06:38:35.067Z,96670.50
2019-02-16T06:41:18.955Z,96670.84
2019-02-16T06:43:48.214Z,96673.83
2019-02-16T06:46:26.704Z,96670.31
2019-02-16T06:48:57.338Z,96671.55
2019-02-16T06:51:28.414Z,96677.36
2019-02-16T06:54:00.666Z,96681.28
2019-02-16T06:59:07.839Z,96679.94
2019-02-16T07:01:38.067Z,96681.00
2019-02-16T07:04:07.195Z,96682.22
2019-02-16T07:06:47.111Z,96679.80
2019-02-16T07:09:16.145Z,96683.77
2019-02-16T07:14:36.811Z,96679.69
2019-02-16T07:17:07.540Z,96678.45
2019-02-16T07:19:36.588Z,96676.09
2019-02-16T07:22:05.652Z,96676.95
2019-02-16T07:24:34.707Z,96679.73
2019-02-16T07:27:04.273Z,96676.78
2019-02-16T07:29:37.409Z,96676.58
2019-02-16T07:32:06.457Z,96676.02
2019-02-16T07:34:35.965Z,96682.84
2019-02-16T07:37:06.002Z,96685.64
2019-02-16T07:39:36.968Z,96687.16
2019-02-16T07:42:06.917Z,96683.95
2019-02-16T07:47:36.433Z,96684.63
2019-02-16T07:50:23.262Z,96677.72
2019-02-16T07:52:55.619Z,96680.34
2019-02-16T07:55:24.671Z,96679.61
2019-02-16T07:57:55.988Z,96684.70
2019-02-16T08:00:33.670Z,96676.38
2019-02-16T08:03:03.128Z,96676.97
2019-02-16T08:05:43.165Z,96678.24
2019-02-16T08:08:12.636Z,96677.39
2019-02-16T08:10:47.089Z,96674.85
2019-02-16T08:13:19.049Z,96672.11
2019-02-16T08:15:48.099Z,96676.02
2019-02-16T08:20:52.812Z,96674.89
2019-02-16T08:29:15.158Z,96664.27
2019-02-16T08:31:56.696Z,96667.23
2019-02-16T08:34:32.363Z,96667.00
2019-02-16T08:40:01.844Z,96653.59
2019-02-16T08:42:35.081Z,96653.37
2019-02-16T08:45:04.876Z,96651.76
2019-02-16T08:53:01.756Z,96651.84
2019-02-16T08:58:08.099Z,96648.56
2019-02-16T09:03:34.416Z,96649.46
2019-02-16T09:06:05.077Z,96647.78
2019-02-16T09:11:30.459Z,96639.55
2019-02-16T09:14:03.443Z,96636.44
2019-02-16T09:16:36.202Z,96634.81
2019-02-16T09:19:06.548Z,96630.69
2019-02-16T09:21:36.479Z,96633.38
2019-02-16T09:24:08.025Z,96626.66
2019-02-16T09:29:16.661Z,96626.38
2019-02-16T09:31:52.625Z,96620.73
2019-02-16T09:37:00.024Z,96621.86
2019-02-16T09:39:37.124Z,96622.66
2019-02-16T09:45:16.272Z,96618.17
2019-02-16T09:47:56.489Z,96620.18
2019-02-16T09:53:45.743Z,96623.03
2019-02-16T09:56:28.481Z,96621.51
2019-02-16T09:59:07.686Z,96615.59
2019-02-16T10:01:52.909Z,96614.70
2019-02-16T10:07:11.782Z,96608.98
2019-02-16T10:12:55.177Z,96603.92
2019-02-16T10:15:30.626Z,96606.04
2019-02-16T10:18:10.521Z,96601.69
2019-02-16T10:20:46.135Z,96606.56
2019-02-16T10:23:21.147Z,96602.20
2019-02-16T10:26:09.871Z,96606.23
2019-02-16T10:28:57.410Z,96602.61
2019-02-16T10:31:36.118Z,96605.72
2019-02-16T10:34:10.350Z,96608.73
2019-02-16T10:39:50.541Z,96609.39
2019-02-16T10:42:25.066Z,96607.06
2019-02-16T10:44:58.433Z,96604.08
2019-02-16T10:47:37.621Z,96605.56
2019-02-16T10:50:12.595Z,96599.37
2019-02-16T10:52:42.921Z,96599.75
2019-02-16T10:55:18.260Z,96601.43
2019-02-16T10:57:48.199Z,96603.60
2019-02-16T11:00:35.315Z,96599.66
2019-02-16T11:05:40.208Z,96595.44
2019-02-16T11:08:21.150Z,96589.34
2019-02-16T11:10:52.980Z,96591.48
2019-02-16T11:13:25.905Z,96581.57
2019-02-16T11:15:55.866Z,96583.14
2019-02-16T11:18:30.501Z,96579.80
2019-02-16T11:24:19.051Z,96574.15
2019-02-16T11:26:58.290Z,96567.61
2019-02-16T11:29:27.372Z,96563.39
2019-02-16T11:32:01.831Z,96569.72
2019-02-16T11:34:33.893Z,96559.80
2019-02-16T11:37:08.662Z,96563.97
2019-02-16T11:42:19.240Z,96562.31
2019-02-16T11:50:23.323Z,96550.67
2019-02-16T11:55:55.706Z,96545.82
2019-02-16T11:58:33.388Z,96543.36
2019-02-16T12:01:04.830Z,96538.73
2019-02-16T12:03:33.899Z,96542.30
2019-02-16T12:06:05.827Z,96533.18
2019-02-16T12:16:51.657Z,96528.57
2019-02-16T12:19:32.328Z,96516.80
2019-02-16T12:22:04.192Z,96521.64
2019-02-16T12:24:33.476Z,96521.21
2019-02-16T12:27:02.570Z,96514.59
2019-02-16T12:29:41.115Z,96518.70
2019-02-16T12:32:10.830Z,96512.66
2019-02-16T12:34:57.744Z,96507.32
2019-02-16T12:37:32.785Z,96510.66
2019-02-16T12:40:01.881Z,96502.34
2019-02-16T12:48:18.734Z,96490.86
2019-02-16T12:50:52.743Z,96493.02
2019-02-16T12:56:21.945Z,96487.83
2019-02-16T13:01:56.360Z,96472.49
2019-02-16T13:09:41.367Z,96476.36
2019-02-16T13:12:13.839Z,96475.80
2019-02-16T13:14:44.655Z,96471.78
2019-02-16T13:17:18.293Z,96475.45
2019-02-16T13:22:24.464Z,96465.96
2019-02-16T13:27:37.286Z,96457.91
2019-02-16T13:30:07.887Z,96451.70
2019-02-16T13:32:39.837Z,96450.00
2019-02-16T13:40:34.554Z,96440.33
2019-02-16T13:48:17.416Z,96432.44
2019-02-16T13:50:47.072Z,96435.56
2019-02-16T13:53:21.705Z,96428.70
2019-02-16T13:56:01.953Z,96428.38
2019-02-16T13:58:30.983Z,96427.80
2019-02-16T14:01:02.723Z,96428.38
2019-02-16T14:03:36.894Z,96423.92
2019-02-16T14:09:02.988Z,96429.48
2019-02-16T14:11:37.623Z,96432.92
2019-02-16T14:14:12.307Z,96436.28
2019-02-16T14:16:54.005Z,96433.39
2019-02-16T14:19:23.125Z,96429.44
2019-02-16T14:21:52.179Z,96425.73
2019-02-16T14:24:21.221Z,96427.14
2019-02-16T14:26:50.308Z,96430.72
2019-02-16T14:29:19.815Z,96424.07
2019-02-16T14:34:24.671Z,96426.77
2019-02-16T14:36:54.669Z,96425.47
2019-02-16T14:39:23.710Z,96421.27
2019-02-16T14:44:28.623Z,96415.78
2019-02-16T14:46:57.676Z,96417.42
2019-02-16T14:49:27.160Z,96420.57
2019-02-16T14:51:56.236Z,96422.03
2019-02-16T14:54:29.551Z,96419.09
2019-02-16T14:57:02.256Z,96415.08
2019-02-16T14:59:37.536Z,96411.95
2019-02-16T15:02:15.614Z,96411.10
2019-02-16T15:04:49.644Z,96407.69
2019-02-16T15:07:22.734Z,96410.51
2019-02-16T15:09:56.693Z,96405.35
2019-02-16T15:12:29.798Z,96405.11
2019-02-16T15:15:05.020Z,96408.03
2019-02-16T15:17:38.165Z,96405.44
2019-02-16T15:22:43.209Z,96407.89
2019-02-16T15:25:12.288Z,96405.48
2019-02-16T15:27:44.835Z,96404.39
2019-02-16T15:30:14.862Z,96397.95
2019-02-16T15:32:43.908Z,96397.84
2019-02-16T15:37:48.759Z,96397.17
2019-02-16T15:40:17.823Z,96398.52
2019-02-16T15:42:46.913Z,96393.63
2019-02-16T15:45:15.963Z,96399.77
2019-02-16T15:50:20.790Z,96399.87
2019-02-16T15:52:49.873Z,96398.08
2019-02-16T15:55:18.891Z,96400.88
2019-02-16T15:57:47.974Z,96401.00
2019-02-16T16:00:20.224Z,96399.81
2019-02-16T16:02:49.311Z,96397.87
2019-02-16T16:10:36.024Z,96395.74
2019-02-16T16:15:44.965Z,96397.50
2019-02-16T16:29:11.741Z,96405.86
2019-02-16T16:31:45.055Z,96405.20
2019-02-16T16:37:07.888Z,96404.79
2019-02-16T16:39:49.249Z,96410.92
2019-02-16T16:47:32.076Z,96416.81
2019-02-16T16:50:03.118Z,96416.68
2019-02-16T16:52:37.229Z,96418.20
2019-02-16T16:55:10.116Z,96421.65
2019-02-16T16:57:44.575Z,96421.56
2019-02-16T17:00:33.479Z,96428.34
2019-02-16T17:03:04.740Z,96425.16
2019-02-16T17:05:49.223Z,96431.63
2019-02-16T17:13:58.672Z,96440.27
2019-02-16T17:16:33.163Z,96443.03
2019-02-16T17:19:13.726Z,96440.00
2019-02-16T17:21:43.007Z,96446.56
2019-02-16T17:24:12.270Z,96445.14
2019-02-16T17:26:44.253Z,96450.55
2019-02-16T17:29:19.676Z,96451.16
2019-02-16T17:31:59.878Z,96453.59
2019-02-16T17:34:37.091Z,96459.57
2019-02-16T17:40:07.678Z,96448.86
2019-02-16T17:42:40.099Z,96453.45
2019-02-16T17:45:12.978Z,96449.02
2019-02-16T17:47:51.504Z,96452.56
2019-02-16T17:53:02.515Z,96455.44
2019-02-16T17:55:38.116Z,96454.24
2019-02-16T18:03:44.215Z,96457.92
2019-02-16T18:06:19.994Z,96458.84
2019-02-16T18:11:50.537Z,96462.28
2019-02-16T18:14:23.599Z,96460.20
2019-02-16T18:19:55.283Z,96465.05
2019-02-16T18:22:29.180Z,96465.86
2019-02-16T18:25:09.023Z,96463.69
2019-02-16T18:30:42.845Z,96458.67
2019-02-16T18:35:52.311Z,96455.15
2019-02-16T18:38:28.674Z,96454.68
2019-02-16T18:41:01.550Z,96455.38
2019-02-16T18:43:48.975Z,96452.53
2019-02-16T18:46:18.850Z,96454.30
2019-02-16T18:55:10.190Z,96458.45
2019-02-16T18:57:31.168Z,96460.65
2019-02-16T19:00:02.748Z,96463.89
2019-02-16T19:05:10.471Z,96462.53
2019-02-16T19:07:49.410Z,96466.33
2019-02-16T19:13:38.346Z,96468.38
2019-02-16T19:18:45.549Z,96467.59
2019-02-16T19:21:19.935Z,96467.31
2019-02-16T19:23:51.120Z,96467.17
2019-02-16T19:26:20.175Z,96464.33
2019-02-16T19:28:50.757Z,96467.88
2019-02-16T19:31:27.102Z,96469.88
2019-02-16T19:33:58.384Z,96469.08
2019-02-16T19:36:29.828Z,96466.89
2019-02-16T19:41:37.508Z,96466.88
2019-02-16T19:46:43.275Z,96465.66
2019-02-16T19:51:49.356Z,96459.05
2019-02-16T19:56:54.091Z,96456.73
2019-02-16T19:59:45.123Z,96460.44
2019-02-16T20:05:15.411Z,96459.86
2019-02-16T20:07:47.540Z,96461.55
2019-02-16T20:10:36.453Z,96463.99
2019-02-16T20:15:44.423Z,96466.58
2019-02-16T20:18:18.264Z,96462.44
2019-02-16T20:20:53.014Z,96461.17
2019-02-16T20:23:22.961Z,96471.00
2019-02-16T20:25:54.991Z,96469.77
2019-02-16T20:31:30.593Z,96466.70
2019-02-16T20:36:37.893Z,96462.18
2019-02-16T20:39:12.246Z,96458.81
2019-02-16T20:44:37.880Z,96459.75
2019-02-16T20:47:13.919Z,96458.91
2019-02-16T20:49:55.762Z,96467.25
2019-02-16T20:52:34.997Z,96464.26
2019-02-16T20:55:04.057Z,96462.22
2019-02-16T20:57:47.410Z,96463.48
2019-02-16T21:00:16.831Z,96457.31
2019-02-16T21:05:38.313Z,96464.73
2019-02-16T21:11:18.600Z,96451.25
2019-02-16T21:13:47.689Z,96447.91
2019-02-16T21:16:18.025Z,96447.59
2019-02-16T21:22:03.015Z,96440.98
2019-02-16T21:24:33.375Z,96434.96
2019-02-16T21:27:08.525Z,96433.33
2019-02-16T21:29:53.289Z,96435.47
2019-02-16T21:32:26.523Z,96431.77
2019-02-16T21:37:58.974Z,96433.20
2019-02-16T21:40:32.897Z,96433.85
2019-02-16T21:43:07.400Z,96431.00
2019-02-16T21:45:38.083Z,96427.73
2019-02-16T21:50:49.829Z,96429.54
2019-02-16T21:53:33.699Z,96429.00
2019-02-16T21:56:08.160Z,96425.34
2019-02-16T21:58:53.594Z,96428.48
2019-02-16T22:01:25.164Z,96424.28
2019-02-16T22:06:35.368Z,96417.05
2019-02-16T22:09:05.214Z,96415.61
2019-02-16T22:14:35.622Z,96417.79
2019-02-16T22:17:04.654Z,96409.27
2019-02-16T22:19:33.729Z,96410.51
2019-02-16T22:24:42.563Z,96407.26
2019-02-16T22:27:11.639Z,96406.62
2019-02-16T22:29:40.734Z,96402.81
2019-02-16T22:32:09.804Z,96405.66
2019-02-16T22:34:38.863Z,96400.23
2019-02-16T22:37:11.060Z,96401.61
2019-02-16T22:39:40.128Z,96402.03
2019-02-16T22:44:47.030Z,96399.19
2019-02-16T22:47:16.073Z,96398.41
2019-02-16T22:49:45.115Z,96402.50
2019-02-16T22:52:14.199Z,96400.72
2019-02-16T22:54:43.242Z,96397.39
2019-02-16T22:57:25.412Z,96403.55
2019-02-16T22:59:54.472Z,96400.20
2019-02-16T23:02:24.430Z,96393.88
2019-02-16T23:04:53.472Z,96403.34
2019-02-16T23:07:22.518Z,96395.55
2019-02-16T23:09:52.943Z,96400.89
2019-02-16T23:12:22.032Z,96395.42
2019-02-16T23:14:52.123Z,96391.63
2019-02-16T23:17:21.428Z,96395.70
2019-02-16T23:19:50.452Z,96391.70
2019-02-16T23:24:55.211Z,96390.12
2019-02-16T23:30:00.347Z,96387.56
2019-02-16T23:32:29.235Z,96388.99
2019-02-16T23:34:58.281Z,96391.45
2019-02-16T23:37:27.320Z,96389.09
2019-02-16T23:39:56.348Z,96387.22
2019-02-16T23:42:26.650Z,96390.53
2019-02-16T23:47:31.226Z,96386.84
2019-02-16T23:52:35.298Z,96385.48
2019-02-16T23:57:40.092Z,96385.73
